Time,TemperatureF,DewpointF,PressureIn,WindDirection,WindDirectionDegrees,WindSpeedMPH,WindSpeedGustMPH,Humidity,HourlyPrecipIn,Conditions,Clouds,dailyrainin,SolarRadiationWatts/m^2,SoftwareType,DateUTC
2013-01-17 00:02:00,6.0,4.0,-100.00,South,172,5.0,6.0,92,0.00,,,-99.99,0.000000,,2013-01-17 07:02:00,
2013-01-17 00:11:00,7.0,5.0,-100.00,South,171,4.0,5.0,92,0.00,,,-99.99,0.000000,,2013-01-17 07:11:00,
2013-01-17 00:22:00,6.0,4.0,-100.00,SSE,165,5.0,6.0,89,0.00,,,-99.99,0.000000,,2013-01-17 07:22:00,
2013-01-17 00:32:00,6.0,4.0,-100.00,South,173,4.0,6.0,90,0.00,,,-99.99,0.000000,,2013-01-17 07:32:00,
2013-01-17 00:42:00,5.0,3.0,-100.00,South,177,4.0,5.0,90,0.00,,,-99.99,0.000000,,2013-01-17 07:42:00,
2013-01-17 00:50:00,4.0,2.0,-100.00,South,169,4.0,4.0,90,0.00,,,-99.99,0.000000,,2013-01-17 07:50:00,
2013-01-17 00:52:00,4.0,2.0,-100.00,South,174,4.0,4.0,91,0.00,,,-99.99,0.000000,,2013-01-17 07:52:00,
2013-01-17 01:02:00,4.0,2.0,-100.00,South,170,4.0,5.0,91,0.00,,,-99.99,0.000000,,2013-01-17 08:02:00,
2013-01-17 01:11:00,4.0,2.0,-100.00,South,169,4.0,4.0,90,0.00,,,-99.99,0.000000,,2013-01-17 08:11:00,
2013-01-17 01:22:00,4.0,2.0,-100.00,South,169,4.0,4.0,90,0.00,,,-99.99,0.000000,,2013-01-17 08:22:00,
2013-01-17 01:32:00,4.0,2.0,-100.00,South,169,4.0,4.0,90,0.00,,,-99.99,0.000000,,2013-01-17 08:32:00,
2013-01-17 01:42:00,4.0,2.0,-100.00,South,169,4.0,4.0,90,0.00,,,-99.99,0.000000,,2013-01-17 08:42:00,
2013-01-17 02:22:00,6.0,4.0,-100.00,South,175,5.0,6.0,91,0.00,,,-99.99,0.000000,,2013-01-17 09:22:00,
2013-01-17 02:33:00,5.0,3.0,-100.00,South,174,4.0,5.0,91,0.00,,,-99.99,0.000000,,2013-01-17 09:33:00,
2013-01-17 02:42:00,4.0,1.0,-100.00,SSW,194,3.0,5.0,90,0.00,,,-99.99,0.000000,,2013-01-17 09:42:00,
2013-01-17 02:52:00,3.0,1.0,-100.00,South,175,3.0,4.0,90,0.00,,,-99.99,0.000000,,2013-01-17 09:52:00,
2013-01-17 03:02:00,3.0,1.0,-100.00,SSE,165,4.0,4.0,90,0.00,,,-99.99,0.000000,,2013-01-17 10:02:00,
2013-01-17 03:11:00,3.0,0.0,-100.00,SSE,166,4.0,6.0,89,0.00,,,-99.99,0.000000,,2013-01-17 10:11:00,
2013-01-17 03:22:00,2.0,0.0,-100.00,South,172,4.0,4.0,89,0.00,,,-99.99,0.000000,,2013-01-17 10:22:00,
2013-01-17 03:32:00,3.0,1.0,-100.00,South,170,4.0,5.0,92,0.00,,,-99.99,0.000000,,2013-01-17 10:32:00,
2013-01-17 03:42:00,3.0,0.0,-100.00,SSE,167,4.0,5.0,88,0.00,,,-99.99,0.000000,,2013-01-17 10:42:00,
2013-01-17 03:52:00,2.0,0.0,-100.00,South,169,4.0,4.0,89,0.00,,,-99.99,0.000000,,2013-01-17 10:52:00,
2013-01-17 04:02:00,1.0,-2.0,-100.00,South,185,3.0,4.0,88,0.00,,,-99.99,0.000000,,2013-01-17 11:02:00,
2013-01-17 04:11:00,0.0,-2.0,-100.00,SSW,197,3.0,4.0,88,0.00,,,-99.99,0.000000,,2013-01-17 11:11:00,
2013-01-17 04:22:00,0.0,-3.0,-100.00,South,169,4.0,4.0,88,0.00,,,-99.99,0.000000,,2013-01-17 11:22:00,
2013-01-17 04:32:00,1.0,-1.0,-100.00,SSE,165,4.0,5.0,89,0.00,,,-99.99,0.000000,,2013-01-17 11:32:00,
2013-01-17 04:42:00,2.0,0.0,-100.00,SSE,168,4.0,5.0,90,0.00,,,-99.99,0.000000,,2013-01-17 11:42:00,
2013-01-17 04:52:00,2.0,-1.0,-100.00,South,175,4.0,6.0,89,0.00,,,-99.99,0.000000,,2013-01-17 11:52:00,
2013-01-17 05:02:00,1.0,-2.0,-100.00,SSE,158,4.0,6.0,86,0.00,,,-99.99,0.000000,,2013-01-17 12:02:00,
2013-01-17 05:11:00,1.0,-1.0,-100.00,SSE,166,4.0,6.0,89,0.00,,,-99.99,0.000000,,2013-01-17 12:11:00,
2013-01-17 05:22:00,2.0,-1.0,-100.00,South,175,4.0,6.0,88,0.00,,,-99.99,0.000000,,2013-01-17 12:22:00,
2013-01-17 05:32:00,0.0,-3.0,-100.00,South,178,3.0,4.0,87,0.00,,,-99.99,0.000000,,2013-01-17 12:32:00,
2013-01-17 05:42:00,1.0,-2.0,-100.00,SSE,168,4.0,5.0,89,0.00,,,-99.99,0.000000,,2013-01-17 12:42:00,
2013-01-17 05:50:00,3.0,1.0,-100.00,South,172,5.0,6.0,90,0.00,,,-99.99,0.000000,,2013-01-17 12:50:00,
2013-01-17 05:52:00,1.0,-1.0,-100.00,SSE,165,4.0,5.0,90,0.00,,,-99.99,0.000000,,2013-01-17 12:52:00,
2013-01-17 06:02:00,2.0,0.0,-100.00,South,170,5.0,6.0,90,0.00,,,-99.99,0.000000,,2013-01-17 13:02:00,
2013-01-17 06:12:00,3.0,1.0,-100.00,South,172,5.0,6.0,90,0.00,,,-99.99,0.000000,,2013-01-17 13:12:00,
2013-01-17 06:22:00,3.0,1.0,-100.00,South,172,5.0,6.0,90,0.00,,,-99.99,0.000000,,2013-01-17 13:22:00,
2013-01-17 06:33:00,3.0,1.0,-100.00,South,172,5.0,6.0,90,0.00,,,-99.99,0.000000,,2013-01-17 13:33:00,
2013-01-17 06:42:00,3.0,1.0,-100.00,South,172,5.0,6.0,90,0.00,,,-99.99,0.000000,,2013-01-17 13:42:00,
2013-01-17 07:23:00,-1.0,-4.0,-100.00,South,173,3.0,5.0,89,0.00,,,-99.99,0.000000,,2013-01-17 14:23:00,
2013-01-17 07:33:00,1.0,-2.0,-100.00,SSE,159,5.0,6.0,87,0.00,,,-99.99,0.000000,,2013-01-17 14:33:00,
2013-01-17 07:43:00,1.0,-2.0,-100.00,SSE,166,5.0,6.0,87,0.00,,,-99.99,0.000000,,2013-01-17 14:43:00,
2013-01-17 07:53:00,2.0,-1.0,-100.00,SSE,163,6.0,7.0,87,0.00,,,-99.99,1.000000,,2013-01-17 14:53:00,
2013-01-17 08:02:00,2.0,-1.0,-100.00,SSE,151,5.0,7.0,89,0.00,,,-99.99,2.000000,,2013-01-17 15:02:00,
2013-01-17 08:12:00,1.0,-2.0,-100.00,SSE,160,4.0,6.0,87,0.00,,,-99.99,5.000000,,2013-01-17 15:12:00,
2013-01-17 08:22:00,0.0,-3.0,-100.00,South,173,3.0,4.0,86,0.00,,,-99.99,7.000000,,2013-01-17 15:22:00,
2013-01-17 08:33:00,1.0,-1.0,-100.00,SSE,157,4.0,7.0,88,0.00,,,-99.99,9.000000,,2013-01-17 15:33:00,
2013-01-17 08:42:00,1.0,-2.0,-100.00,South,171,4.0,4.0,86,0.00,,,-99.99,11.000000,,2013-01-17 15:42:00,
2013-01-17 08:52:00,1.0,-2.0,-100.00,SSE,166,3.0,4.0,87,0.00,,,-99.99,13.000000,,2013-01-17 15:52:00,
2013-01-17 09:02:00,1.0,-3.0,-100.00,SSE,163,3.0,4.0,85,0.00,,,-99.99,15.000000,,2013-01-17 16:02:00,
2013-01-17 09:12:00,1.0,-3.0,-100.00,SSW,207,2.0,4.0,85,0.00,,,-99.99,24.000000,,2013-01-17 16:12:00,
2013-01-17 09:22:00,4.0,1.0,-100.00,SSW,204,1.0,2.0,88,0.00,,,-99.99,125.000000,,2013-01-17 16:22:00,
2013-01-17 09:33:00,12.0,7.0,-100.00,SSE,166,2.0,2.0,81,0.00,,,-99.99,167.000000,,2013-01-17 16:33:00,
2013-01-17 09:42:00,25.0,20.0,-100.00,SSE,160,3.0,5.0,79,0.00,,,-99.99,194.000000,,2013-01-17 16:42:00,
2013-01-17 09:52:00,36.0,23.0,-100.00,South,170,3.0,3.0,59,0.00,,,-99.99,217.000000,,2013-01-17 16:52:00,
2013-01-17 10:02:00,32.0,10.0,-100.00,SSE,158,2.0,2.0,39,0.00,,,-99.99,232.000000,,2013-01-17 17:02:00,
2013-01-17 10:12:00,30.0,3.0,-100.00,SE,144,2.0,3.0,31,0.00,,,-99.99,254.000000,,2013-01-17 17:12:00,
2013-01-17 10:22:00,34.0,5.0,-100.00,SE,130,2.0,3.0,28,0.00,,,-99.99,275.000000,,2013-01-17 17:22:00,
2013-01-17 10:32:00,41.0,8.0,-100.00,ENE,76,0.0,2.0,25,0.00,,,-99.99,291.000000,,2013-01-17 17:32:00,
2013-01-17 10:42:00,24.0,7.0,-100.00,ESE,104,0.0,2.0,48,0.00,,,-99.99,312.000000,,2013-01-17 17:42:00,
2013-01-17 10:53:00,18.0,8.0,-100.00,ESE,104,1.0,2.0,66,0.00,,,-99.99,330.000000,,2013-01-17 17:53:00,
2013-01-17 11:03:00,16.0,8.0,-100.00,East,101,2.0,3.0,70,0.00,,,-99.99,347.000000,,2013-01-17 18:03:00,
2013-01-17 11:12:00,17.0,8.0,-100.00,East,83,2.0,2.0,68,0.00,,,-99.99,358.000000,,2013-01-17 18:12:00,
2013-01-17 11:22:00,17.0,8.0,-100.00,East,83,2.0,2.0,68,0.00,,,-99.99,358.000000,,2013-01-17 18:22:00,
2013-01-17 12:23:00,17.0,9.0,-100.00,SE,146,3.0,4.0,71,0.00,,,-99.99,435.000000,,2013-01-17 19:23:00,
2013-01-17 12:33:00,17.0,9.0,-100.00,ENE,75,3.0,4.0,69,0.00,,,-99.99,439.000000,,2013-01-17 19:33:00,
2013-01-17 12:43:00,16.0,7.0,-100.00,WNW,296,3.0,4.0,70,0.00,,,-99.99,440.000000,,2013-01-17 19:43:00,
2013-01-17 12:53:00,15.0,7.0,-100.00,NNW,327,3.0,4.0,71,0.00,,,-99.99,441.000000,,2013-01-17 19:53:00,
2013-01-17 13:02:00,16.0,8.0,-100.00,NW,307,2.0,3.0,69,0.00,,,-99.99,444.000000,,2013-01-17 20:02:00,
2013-01-17 13:12:00,17.0,8.0,-100.00,ESE,107,1.0,3.0,67,0.00,,,-99.99,443.000000,,2013-01-17 20:12:00,
2013-01-17 13:22:00,16.0,8.0,-100.00,SSE,167,2.0,4.0,68,0.00,,,-99.99,439.000000,,2013-01-17 20:22:00,
2013-01-17 13:33:00,15.0,8.0,-100.00,NW,310,4.0,4.0,74,0.00,,,-99.99,432.000000,,2013-01-17 20:33:00,
2013-01-17 13:43:00,15.0,8.0,-100.00,NW,324,3.0,4.0,73,0.00,,,-99.99,427.000000,,2013-01-17 20:43:00,
2013-01-17 13:53:00,16.0,8.0,-100.00,NW,325,3.0,4.0,72,0.00,,,-99.99,418.000000,,2013-01-17 20:53:00,
2013-01-17 14:02:00,17.0,9.0,-100.00,NNW,335,2.0,3.0,70,0.00,,,-99.99,410.000000,,2013-01-17 21:02:00,
2013-01-17 14:12:00,17.0,9.0,-100.00,WSW,257,2.0,3.0,68,0.00,,,-99.99,401.000000,,2013-01-17 21:12:00,
2013-01-17 14:22:00,18.0,9.0,-100.00,SE,124,2.0,3.0,67,0.00,,,-99.99,390.000000,,2013-01-17 21:22:00,
2013-01-17 14:33:00,18.0,9.0,-100.00,ESE,117,2.0,2.0,67,0.00,,,-99.99,381.000000,,2013-01-17 21:33:00,
2013-01-17 14:42:00,19.0,10.0,-100.00,ESE,116,2.0,2.0,67,0.00,,,-99.99,364.000000,,2013-01-17 21:42:00,
2013-01-17 14:52:00,19.0,10.0,-100.00,East,101,2.0,3.0,67,0.00,,,-99.99,347.000000,,2013-01-17 21:52:00,
2013-01-17 15:02:00,20.0,10.0,-100.00,ESE,104,1.0,2.0,65,0.00,,,-99.99,332.000000,,2013-01-17 22:02:00,
2013-01-17 15:11:00,21.0,10.0,-100.00,SSE,151,1.0,3.0,60,0.00,,,-99.99,314.000000,,2013-01-17 22:11:00,
2013-01-17 15:22:00,20.0,9.0,-100.00,ENE,73,1.0,3.0,64,0.00,,,-99.99,297.000000,,2013-01-17 22:22:00,
2013-01-17 15:32:00,18.0,9.0,-100.00,ESE,111,4.0,5.0,69,0.00,,,-99.99,279.000000,,2013-01-17 22:32:00,
2013-01-17 15:42:00,20.0,10.0,-100.00,East,100,2.0,4.0,65,0.00,,,-99.99,258.000000,,2013-01-17 22:42:00,
2013-01-17 15:50:00,20.0,9.0,-100.00,East,95,2.0,2.0,64,0.00,,,-99.99,194.000000,,2013-01-17 22:50:00,
2013-01-17 15:52:00,20.0,10.0,-100.00,ENE,59,1.0,2.0,64,0.00,,,-99.99,238.000000,,2013-01-17 22:52:00,
2013-01-17 16:02:00,20.0,10.0,-100.00,East,101,1.0,1.0,64,0.00,,,-99.99,218.000000,,2013-01-17 23:02:00,
2013-01-17 16:12:00,20.0,9.0,-100.00,East,95,2.0,2.0,64,0.00,,,-99.99,194.000000,,2013-01-17 23:12:00,
2013-01-17 16:22:00,20.0,9.0,-100.00,East,95,2.0,2.0,64,0.00,,,-99.99,194.000000,,2013-01-17 23:22:00,
2013-01-17 16:32:00,20.0,9.0,-100.00,East,95,2.0,2.0,64,0.00,,,-99.99,194.000000,,2013-01-17 23:32:00,
2013-01-17 16:42:00,20.0,9.0,-100.00,East,95,2.0,2.0,64,0.00,,,-99.99,194.000000,,2013-01-17 23:42:00,
2013-01-17 17:23:00,12.0,5.0,-100.00,South,180,4.0,5.0,73,0.00,,,-99.99,18.000000,,2013-01-18 00:23:00,
2013-01-17 17:33:00,12.0,5.0,-100.00,South,180,4.0,5.0,73,0.00,,,-99.99,18.000000,,2013-01-18 00:33:00,
2013-01-17 17:43:00,11.0,5.0,-100.00,South,179,3.0,4.0,76,0.00,,,-99.99,8.000000,,2013-01-18 00:43:00,
2013-01-17 17:52:00,10.0,5.0,-100.00,South,174,4.0,5.0,78,0.00,,,-99.99,4.000000,,2013-01-18 00:52:00,
2013-01-17 18:02:00,9.0,4.0,-100.00,South,176,4.0,5.0,79,0.00,,,-99.99,1.000000,,2013-01-18 01:02:00,
2013-01-17 18:12:00,9.0,5.0,-100.00,SSE,167,5.0,6.0,82,0.00,,,-99.99,0.000000,,2013-01-18 01:12:00,
2013-01-17 18:22:00,9.0,5.0,-100.00,SSE,167,5.0,7.0,83,0.00,,,-99.99,0.000000,,2013-01-18 01:22:00,
2013-01-17 18:32:00,10.0,6.0,-100.00,South,172,5.0,6.0,83,0.00,,,-99.99,0.000000,,2013-01-18 01:32:00,
2013-01-17 18:42:00,10.0,5.0,-100.00,South,171,4.0,5.0,81,0.00,,,-99.99,0.000000,,2013-01-18 01:42:00,
2013-01-17 18:52:00,9.0,5.0,-100.00,South,181,4.0,6.0,83,0.00,,,-99.99,0.000000,,2013-01-18 01:52:00,
2013-01-17 19:02:00,9.0,5.0,-100.00,South,171,4.0,5.0,83,0.00,,,-99.99,0.000000,,2013-01-18 02:02:00,
2013-01-17 19:12:00,9.0,5.0,-100.00,South,173,5.0,6.0,83,0.00,,,-99.99,0.000000,,2013-01-18 02:12:00,
2013-01-17 19:22:00,9.0,5.0,-100.00,South,176,5.0,5.0,83,0.00,,,-99.99,0.000000,,2013-01-18 02:22:00,
2013-01-17 19:32:00,9.0,5.0,-100.00,SSW,207,3.0,5.0,82,0.00,,,-99.99,0.000000,,2013-01-18 02:32:00,
2013-01-17 19:42:00,8.0,5.0,-100.00,South,175,4.0,4.0,86,0.00,,,-99.99,0.000000,,2013-01-18 02:42:00,
2013-01-17 19:52:00,7.0,4.0,-100.00,SSE,165,4.0,4.0,85,0.00,,,-99.99,0.000000,,2013-01-18 02:52:00,
2013-01-17 20:02:00,6.0,3.0,-100.00,South,178,4.0,5.0,84,0.00,,,-99.99,0.000000,,2013-01-18 03:02:00,
2013-01-17 20:12:00,7.0,3.0,-100.00,South,179,4.0,5.0,85,0.00,,,-99.99,0.000000,,2013-01-18 03:12:00,
2013-01-17 20:22:00,7.0,3.0,-100.00,SSE,168,3.0,4.0,87,0.00,,,-99.99,0.000000,,2013-01-18 03:22:00,
2013-01-17 20:32:00,7.0,5.0,-100.00,SSE,162,5.0,6.0,88,0.00,,,-99.99,0.000000,,2013-01-18 03:32:00,
2013-01-17 20:42:00,8.0,4.0,-100.00,SSE,165,5.0,6.0,85,0.00,,,-99.99,0.000000,,2013-01-18 03:42:00,
2013-01-17 20:50:00,6.0,4.0,-100.00,South,178,4.0,5.0,89,0.00,,,-99.99,0.000000,,2013-01-18 03:50:00,
2013-01-17 20:52:00,6.0,3.0,-100.00,SSE,167,5.0,6.0,85,0.00,,,-99.99,0.000000,,2013-01-18 03:52:00,
2013-01-17 21:02:00,6.0,3.0,-100.00,SSE,166,4.0,5.0,85,0.00,,,-99.99,0.000000,,2013-01-18 04:02:00,
2013-01-17 21:11:00,6.0,4.0,-100.00,South,178,4.0,5.0,89,0.00,,,-99.99,0.000000,,2013-01-18 04:11:00,
2013-01-17 21:22:00,6.0,4.0,-100.00,South,178,4.0,5.0,89,0.00,,,-99.99,0.000000,,2013-01-18 04:22:00,
2013-01-17 21:32:00,6.0,4.0,-100.00,South,178,4.0,5.0,89,0.00,,,-99.99,0.000000,,2013-01-18 04:32:00,
2013-01-17 21:42:00,6.0,4.0,-100.00,South,178,4.0,5.0,89,0.00,,,-99.99,0.000000,,2013-01-18 04:42:00,
2013-01-17 22:22:00,6.0,3.0,-100.00,South,171,4.0,4.0,87,0.00,,,-99.99,0.000000,,2013-01-18 05:22:00,
2013-01-17 22:33:00,5.0,2.0,-100.00,South,170,4.0,4.0,87,0.00,,,-99.99,0.000000,,2013-01-18 05:33:00,
2013-01-17 22:43:00,5.0,3.0,-100.00,South,173,4.0,4.0,89,0.00,,,-99.99,0.000000,,2013-01-18 05:43:00,
2013-01-17 22:53:00,5.0,2.0,-100.00,SSE,166,4.0,5.0,87,0.00,,,-99.99,0.000000,,2013-01-18 05:53:00,
2013-01-17 23:02:00,5.0,2.0,-100.00,South,171,4.0,5.0,85,0.00,,,-99.99,0.000000,,2013-01-18 06:02:00,
2013-01-17 23:12:00,6.0,3.0,-100.00,South,173,4.0,5.0,89,0.00,,,-99.99,0.000000,,2013-01-18 06:12:00,
2013-01-17 23:22:00,6.0,2.0,-100.00,South,171,4.0,6.0,85,0.00,,,-99.99,0.000000,,2013-01-18 06:22:00,
2013-01-17 23:32:00,5.0,2.0,-100.00,South,175,5.0,5.0,86,0.00,,,-99.99,0.000000,,2013-01-18 06:32:00,
2013-01-17 23:42:00,5.0,2.0,-100.00,South,169,4.0,5.0,86,0.00,,,-99.99,0.000000,,2013-01-18 06:42:00,
2013-01-17 23:52:00,4.0,1.0,-100.00,SSE,161,4.0,6.0,87,0.00,,,-99.99,0.000000,,2013-01-18 06:52:00,